Time;durP1;ratioP1;P1;durP2;ratioP2;P2;SDS_P1;SDS_P2;PMS_P1;PMS_P2;Temp;Humidity;BMP_temperature;BMP_pressure;BME280_temperature;BME280_humidity;BME280_pressure;Samples;Min_cycle;Max_cycle;Signal;HPM_P1;HPM_P2
2024/01/30 00:01:53;;;;;;;64.95;32.10;;;;;;;-142.57;100.00;55399.97;5074868;28;20040;-81
2024/01/30 00:04:18;;;;;;;58.20;30.38;;;;;;;-142.57;100.00;55430.28;5074767;28;20032;-81
2024/01/30 00:06:45;;;;;;;64.03;32.17;;;;;;;-142.57;100.00;55406.03;5075107;28;20032;-81
2024/01/30 00:09:11;;;;;;;62.38;32.17;;;;;;;-142.57;100.00;55416.16;5074416;28;20392;-80
2024/01/30 00:11:39;;;;;;;66.85;32.75;;;;;;;-142.57;100.00;55391.91;5073748;28;20048;-79
2024/01/30 00:14:08;;;;;;;61.83;31.42;;;;;;;-142.57;100.00;55393.91;5074737;28;20032;-80
2024/01/30 00:16:34;;;;;;;59.88;30.48;;;;;;;-142.57;100.00;55395.94;5074106;28;20028;-81
2024/01/30 00:19:01;;;;;;;61.45;32.10;;;;;;;-142.57;100.00;55377.75;5074203;28;20105;-81
2024/01/30 00:21:27;;;;;;;59.08;30.80;;;;;;;-142.57;100.00;55414.13;5074748;28;20507;-80
2024/01/30 00:23:53;;;;;;;54.53;29.33;;;;;;;-142.57;100.00;55402.00;5081536;28;20056;-81
2024/01/30 00:26:18;;;;;;;56.67;29.88;;;;;;;-142.57;100.00;55399.97;5091436;28;20047;-80
2024/01/30 00:28:44;;;;;;;55.20;29.15;;;;;;;-142.57;100.00;55418.16;5093572;28;20505;-79
2024/01/30 00:31:12;;;;;;;58.22;29.73;;;;;;;-142.57;100.00;55450.50;5085201;28;20052;-80
2024/01/30 00:33:44;;;;;;;;;;;;;;;-142.57;100.00;55393.91;5085720;28;20068;-80
2024/01/30 00:36:13;;;;;;;50.17;27.58;;;;;;;-142.57;100.00;55361.59;5080392;28;19916;-81
2024/01/30 00:38:40;;;;;;;51.90;27.70;;;;;;;-142.57;100.00;55381.81;5075558;28;20435;-81
2024/01/30 00:41:09;;;;;;;46.58;25.52;;;;;;;-142.57;100.00;55418.16;5073611;28;20093;-80
2024/01/30 00:43:35;;;;;;;44.63;25.75;;;;;;;-142.57;100.00;55371.69;5073820;28;20081;-81
2024/01/30 00:46:01;;;;;;;41.92;24.73;;;;;;;-142.57;100.00;55353.50;5074868;28;20044;-79
2024/01/30 00:48:26;;;;;;;43.53;26.23;;;;;;;-142.57;100.00;55359.56;5074424;28;20154;-79
2024/01/30 00:50:52;;;;;;;44.70;25.48;;;;;;;-142.57;100.00;55395.94;5075357;28;20047;-78
2024/01/30 00:53:18;;;;;;;42.58;24.85;;;;;;;-142.57;100.00;55365.63;5074797;28;20062;-80
2024/01/30 00:55:44;;;;;;;43.45;24.27;;;;;;;-142.57;100.00;55357.56;5074199;28;20099;-81
2024/01/30 00:58:09;;;;;;;44.92;26.33;;;;;;;-142.57;100.00;55335.34;5073849;28;20110;-81
2024/01/30 01:00:35;;;;;;;48.45;26.23;;;;;;;-142.57;100.00;55381.81;5072889;28;20036;-84
2024/01/30 01:03:01;;;;;;;47.90;26.88;;;;;;;-142.57;100.00;55357.56;5073827;28;20469;-79
2024/01/30 01:05:27;;;;;;;49.05;26.77;;;;;;;-142.57;100.00;55359.56;5073781;28;20106;-81
2024/01/30 01:07:54;;;;;;;49.83;27.10;;;;;;;-142.57;100.00;55377.75;5072915;28;20127;-79
2024/01/30 01:10:20;;;;;;;50.60;28.83;;;;;;;-142.57;100.00;55335.34;5072139;28;20031;-81
2024/01/30 01:12:46;;;;;;;45.47;26.13;;;;;;;-142.57;100.00;55337.34;5072940;28;20041;-79
2024/01/30 01:15:12;;;;;;;49.58;26.88;;;;;;;-142.57;100.00;55353.50;5073749;28;20021;-79
2024/01/30 01:17:38;;;;;;;54.08;29.90;;;;;;;-142.57;100.00;55329.28;5073689;28;20079;-80
2024/01/30 01:20:05;;;;;;;51.40;28.48;;;;;;;-142.57;100.00;55345.44;5073517;28;20020;-80
2024/01/30 01:22:31;;;;;;;50.40;28.33;;;;;;;-142.57;100.00;55321.19;5073601;28;20048;-80
2024/01/30 01:24:56;;;;;;;50.45;28.25;;;;;;;-142.57;100.00;55292.91;5073170;28;20473;-81
2024/01/30 01:27:22;;;;;;;49.42;27.25;;;;;;;-142.57;100.00;55321.19;5071963;28;20025;-81
2024/01/30 01:29:47;;;;;;;45.65;25.02;;;;;;;-142.57;100.00;55339.38;5073439;28;20064;-79
2024/01/30 01:32:13;;;;;;;43.20;24.80;;;;;;;-142.57;100.00;55337.34;5071916;28;20106;-82
2024/01/30 01:34:38;;;;;;;45.20;26.58;;;;;;;-142.57;100.00;55321.19;5075635;28;20060;-79
2024/01/30 01:37:04;;;;;;;47.90;25.73;;;;;;;-142.57;100.00;55313.09;5077077;28;20032;-79
2024/01/30 01:39:29;;;;;;;48.88;26.13;;;;;;;-142.57;100.00;55321.19;5076964;28;20435;-79
2024/01/30 01:41:55;;;;;;;47.25;26.92;;;;;;;-142.57;100.00;55274.72;5076768;28;20422;-81
2024/01/30 01:44:20;;;;;;;48.67;27.25;;;;;;;-142.57;100.00;55305.03;5076708;28;20037;-82
2024/01/30 01:46:47;;;;;;;40.13;23.58;;;;;;;-142.57;100.00;55317.16;5076833;28;20029;-81
2024/01/30 01:49:14;;;;;;;43.88;25.48;;;;;;;-142.57;100.00;55319.16;5075403;28;20039;-81
2024/01/30 01:51:41;;;;;;;42.00;24.73;;;;;;;-142.57;100.00;55309.06;5076110;28;20481;-81
2024/01/30 01:54:07;;;;;;;42.30;24.95;;;;;;;-142.57;100.00;55250.47;5075454;28;20094;-81
2024/01/30 01:56:33;;;;;;;43.15;24.15;;;;;;;-142.57;100.00;55305.03;5076636;28;20545;-78
2024/01/30 01:59:07;;;;;;;44.13;25.30;;;;;;;-142.57;100.00;55300.97;5076689;28;20041;-80
2024/01/30 02:01:34;;;;;;;42.10;24.20;;;;;;;-142.57;100.00;55278.75;5076361;28;20037;-79
2024/01/30 02:04:00;;;;;;;42.60;24.80;;;;;;;-142.57;100.00;55268.66;5076758;28;20039;-79
2024/01/30 02:06:27;;;;;;;45.25;25.98;;;;;;;-142.57;100.00;55323.22;5076441;28;20051;-79
2024/01/30 02:08:52;;;;;;;44.38;25.38;;;;;;;-142.57;100.00;55317.16;5076126;28;20116;-79
2024/01/30 02:11:19;;;;;;;43.35;25.63;;;;;;;-142.57;100.00;55305.03;5076175;28;20546;-79
2024/01/30 02:13:45;;;;;;;43.33;25.95;;;;;;;-142.57;100.00;55305.03;5076132;28;20048;-80
2024/01/30 02:16:10;;;;;;;43.78;25.20;;;;;;;-142.57;100.00;55284.81;5076117;28;20387;-79
2024/01/30 02:18:41;;;;;;;49.25;26.75;;;;;;;-142.57;100.00;55284.81;5076663;28;20025;-80
2024/01/30 02:21:10;;;;;;;51.60;26.77;;;;;;;-142.57;100.00;55256.53;5075366;28;20029;-81
2024/01/30 02:23:37;;;;;;;49.13;27.23;;;;;;;-142.57;100.00;55280.78;5075979;28;20040;-80
2024/01/30 02:26:06;;;;;;;57.25;27.77;;;;;;;-142.57;100.00;55284.81;5074990;28;20111;-80
2024/01/30 02:28:31;;;;;;;54.90;26.98;;;;;;;-142.57;100.00;55288.88;5076046;28;20042;-78
2024/01/30 02:30:57;;;;;;;58.58;29.10;;;;;;;-142.57;100.00;55244.41;5077542;28;20108;-78
2024/01/30 02:33:22;;;;;;;59.05;29.13;;;;;;;-142.57;100.00;55280.78;5099141;28;20052;-80
2024/01/30 02:35:48;;;;;;;55.22;27.60;;;;;;;-142.57;100.00;55262.59;5098777;28;20024;-78
2024/01/30 02:38:15;;;;;;;55.60;27.02;;;;;;;-142.57;100.00;55296.94;5096105;28;20036;-79
2024/01/30 02:40:40;;;;;;;49.45;25.73;;;;;;;-142.57;100.00;55256.53;5096247;28;20048;-79
2024/01/30 02:43:06;;;;;;;47.00;26.02;;;;;;;-142.57;100.00;55264.63;5075239;28;20037;-78
2024/01/30 02:45:34;;;;;;;49.63;24.95;;;;;;;-142.57;100.00;55248.47;5074530;28;20073;-78
2024/01/30 02:48:00;;;;;;;46.15;25.15;;;;;;;-142.57;100.00;55274.72;5074195;28;20469;-79
2024/01/30 02:50:26;;;;;;;52.03;25.45;;;;;;;-142.57;100.00;55252.50;5073980;28;20127;-79
2024/01/30 02:52:55;;;;;;;47.58;26.08;;;;;;;-142.57;100.00;55264.63;5075416;28;20078;-79
2024/01/30 02:55:20;;;;;;;39.80;22.05;;;;;;;-142.57;100.00;55256.53;5073618;28;20016;-80
2024/01/30 02:57:46;;;;;;;46.45;24.50;;;;;;;-142.57;100.00;55256.53;5075120;28;20035;-80
2024/01/30 03:00:12;;;;;;;42.45;24.98;;;;;;;-142.57;100.00;55286.84;5075209;28;20093;-82
2024/01/30 03:02:37;;;;;;;39.58;22.35;;;;;;;-142.57;100.00;55280.78;5074825;28;20541;-79
2024/01/30 03:05:04;;;;;;;38.67;23.20;;;;;;;-142.57;100.00;55232.28;5074959;28;20143;-80
2024/01/30 03:07:30;;;;;;;53.28;23.02;;;;;;;-142.57;100.00;55224.22;5074207;28;20028;-80
2024/01/30 03:09:55;;;;;;;53.58;23.23;;;;;;;-142.57;100.00;55208.06;5074613;28;20499;-81
2024/01/30 03:12:21;;;;;;;52.15;23.55;;;;;;;-142.57;100.00;55232.28;5074486;28;20048;-81
2024/01/30 03:14:49;;;;;;;45.95;23.45;;;;;;;-142.57;100.00;55234.31;5075473;28;20385;-81
2024/01/30 03:17:15;;;;;;;70.30;25.08;;;;;;;-142.57;100.00;55256.53;5074596;28;20540;-80
2024/01/30 03:19:40;;;;;;;58.47;23.83;;;;;;;-142.57;100.00;55230.28;5074362;28;20055;-81
2024/01/30 03:22:06;;;;;;;45.83;23.85;;;;;;;-142.57;100.00;55284.81;5074554;28;20454;-80
2024/01/30 03:24:32;;;;;;;42.00;21.73;;;;;;;-142.57;100.00;55270.69;5073731;28;20045;-81
2024/01/30 03:26:57;;;;;;;64.78;24.13;;;;;;;-142.57;100.00;55252.50;5074618;28;20051;-80
2024/01/30 03:29:23;;;;;;;62.92;24.58;;;;;;;-142.57;100.00;55228.25;5074583;28;20104;-80
2024/01/30 03:31:48;;;;;;;64.47;24.77;;;;;;;-142.57;100.00;55250.47;5074039;28;20072;-79
2024/01/30 03:34:14;;;;;;;53.33;24.70;;;;;;;-142.57;100.00;55236.34;5074238;28;20056;-80
2024/01/30 03:36:39;;;;;;;45.25;23.27;;;;;;;-142.57;100.00;55212.09;5077236;28;20194;-80
2024/01/30 03:39:06;;;;;;;44.65;25.30;;;;;;;-142.57;100.00;55252.50;5078191;28;20035;-81
2024/01/30 03:41:31;;;;;;;49.90;23.98;;;;;;;-142.57;100.00;55244.41;5074683;28;20487;-80
2024/01/30 03:43:59;;;;;;;45.03;23.70;;;;;;;-142.57;100.00;55228.25;5073267;28;20040;-79
2024/01/30 03:46:25;;;;;;;68.35;23.88;;;;;;;-142.57;100.00;55256.53;5074581;28;20507;-80
2024/01/30 03:48:50;;;;;;;69.53;23.80;;;;;;;-142.57;100.00;55256.53;5074192;28;20060;-81
2024/01/30 03:51:16;;;;;;;58.50;22.58;;;;;;;-142.57;100.00;55220.16;5074032;28;20043;-80
2024/01/30 03:53:46;;;;;;;105.80;25.00;;;;;;;-142.57;100.00;55228.25;5073964;28;20040;-81
2024/01/30 03:56:13;;;;;;;83.60;24.17;;;;;;;-142.57;100.00;55226.22;5072691;28;20440;-81
2024/01/30 03:58:39;;;;;;;89.35;26.73;;;;;;;-142.57;100.00;55238.34;5073941;28;20036;-81
2024/01/30 04:01:05;;;;;;;75.22;25.05;;;;;;;-142.57;100.00;55222.19;5072410;28;20099;-81
2024/01/30 04:03:33;;;;;;;72.50;26.50;;;;;;;-142.57;100.00;55240.38;5074432;28;20036;-81
2024/01/30 04:05:58;;;;;;;60.33;24.70;;;;;;;-142.57;100.00;55268.66;5072096;28;20071;-82
2024/01/30 04:08:24;;;;;;;59.72;26.55;;;;;;;-142.57;100.00;55248.47;5074057;28;20056;-81
2024/01/30 04:10:49;;;;;;;78.10;25.50;;;;;;;-142.57;100.00;55220.16;5073709;28;20040;-79
2024/01/30 04:13:15;;;;;;;46.75;24.27;;;;;;;-142.57;100.00;55240.38;5074219;28;20036;-81
2024/01/30 04:15:40;;;;;;;44.53;24.60;;;;;;;-142.57;100.00;55280.78;5074055;28;20465;-80
2024/01/30 04:18:06;;;;;;;42.80;23.50;;;;;;;-142.57;100.00;55195.94;5074202;28;20021;-80
2024/01/30 04:20:31;;;;;;;40.55;22.60;;;;;;;-142.57;100.00;55238.34;5074001;28;20060;-80
2024/01/30 04:22:57;;;;;;;43.25;22.38;;;;;;;-142.57;100.00;55242.41;5073609;28;20412;-81
2024/01/30 04:25:29;;;;;;;41.15;21.92;;;;;;;-142.57;100.00;55222.19;5074385;28;20040;-82
2024/01/30 04:27:57;;;;;;;37.60;21.27;;;;;;;-142.57;100.00;55212.09;5080471;28;20029;-80
2024/01/30 04:30:25;;;;;;;38.22;22.23;;;;;;;-142.57;100.00;55210.06;5073465;28;20040;-81
2024/01/30 04:32:51;;;;;;;38.08;21.40;;;;;;;-142.57;100.00;55187.84;5073323;28;20059;-80
2024/01/30 04:35:16;;;;;;;38.78;21.80;;;;;;;-142.57;100.00;55179.75;5073648;28;20036;-82
2024/01/30 04:37:42;;;;;;;38.63;22.02;;;;;;;-142.57;100.00;55210.06;5073926;28;20036;-80
2024/01/30 04:40:08;;;;;;;38.13;20.50;;;;;;;-142.57;100.00;55212.09;5072122;28;20062;-80
2024/01/30 04:42:33;;;;;;;35.78;20.63;;;;;;;-142.57;100.00;55240.38;5073820;28;20559;-80
2024/01/30 04:45:02;;;;;;;34.63;20.23;;;;;;;-142.57;100.00;55240.38;5073830;28;20033;-79
2024/01/30 04:47:31;;;;;;;36.83;20.80;;;;;;;-142.57;100.00;55208.06;5074012;28;20039;-80
2024/01/30 04:49:56;;;;;;;35.05;20.80;;;;;;;-142.57;100.00;55224.22;5075307;28;20032;-79
2024/01/30 04:53:00;;;;;;;34.65;19.70;;;;;;;-142.57;100.00;55216.13;5084535;28;20043;-81
2024/01/30 04:55:25;;;;;;;35.05;20.00;;;;;;;-142.57;100.00;55181.78;5091543;28;20030;-80
2024/01/30 04:57:51;;;;;;;31.70;18.70;;;;;;;-142.57;100.00;55193.91;5078158;28;20459;-81
2024/01/30 05:00:17;;;;;;;33.03;19.17;;;;;;;-142.57;100.00;55195.94;5073304;28;20032;-79
2024/01/30 05:02:42;;;;;;;32.53;18.77;;;;;;;-142.57;100.00;55167.66;5073573;28;20107;-81
2024/01/30 05:05:08;;;;;;;33.05;19.40;;;;;;;-142.57;100.00;55191.88;5073114;28;20535;-78
2024/01/30 05:07:34;;;;;;;33.35;19.60;;;;;;;-142.57;100.00;55171.69;5076110;28;20068;-79
2024/01/30 05:10:00;;;;;;;33.17;19.10;;;;;;;-142.57;100.00;55179.75;5078202;28;20130;-79
2024/01/30 05:12:31;;;;;;;31.30;19.05;;;;;;;-142.57;100.00;55175.72;5077283;28;20044;-78
2024/01/30 05:15:00;;;;;;;32.80;19.30;;;;;;;-142.57;100.00;55181.78;5076916;28;20115;-84
2024/01/30 05:17:25;;;;;;;35.80;20.85;;;;;;;-142.57;100.00;55177.75;5077888;28;20385;-80
2024/01/30 05:19:51;;;;;;;33.53;20.02;;;;;;;-142.57;100.00;55157.53;5077582;28;20054;-79
2024/01/30 05:22:18;;;;;;;35.47;20.90;;;;;;;-142.57;100.00;55187.84;5077164;28;20114;-81
2024/01/30 05:24:44;;;;;;;36.63;21.05;;;;;;;-142.57;100.00;55195.94;5077530;28;20107;-77
2024/01/30 05:27:10;;;;;;;35.50;21.42;;;;;;;-142.57;100.00;55177.75;5077890;28;20117;-84
2024/01/30 05:29:38;;;;;;;35.85;20.17;;;;;;;-142.57;100.00;55163.59;5077413;28;20043;-81
2024/01/30 05:32:05;;;;;;;42.00;22.73;;;;;;;-142.57;100.00;55159.56;5077133;28;20044;-79
2024/01/30 05:34:31;;;;;;;36.90;20.77;;;;;;;-142.57;100.00;55228.25;5077006;28;20135;-78
2024/01/30 05:36:56;;;;;;;38.47;21.92;;;;;;;-142.57;100.00;55171.69;5076873;28;20044;-83
2024/01/30 05:39:22;;;;;;;38.25;21.85;;;;;;;-142.57;100.00;55224.22;5076834;28;20488;-77
2024/01/30 05:41:50;;;;;;;36.50;21.30;;;;;;;-142.57;100.00;55187.84;5076240;28;20510;-79
2024/01/30 05:44:16;;;;;;;38.22;21.80;;;;;;;-142.57;100.00;55208.06;5076384;28;20060;-77
2024/01/30 05:46:41;;;;;;;36.55;21.65;;;;;;;-142.57;100.00;55171.69;5075618;28;20029;-77
2024/01/30 05:49:07;;;;;;;34.97;20.67;;;;;;;-142.57;100.00;55195.94;5076718;28;20063;-78
2024/01/30 05:51:36;;;;;;;34.88;21.05;;;;;;;-142.57;100.00;55187.84;5076523;28;21098;-78
2024/01/30 05:54:03;;;;;;;32.85;19.70;;;;;;;-142.57;100.00;55181.78;5075121;28;20032;-80
2024/01/30 05:56:29;;;;;;;38.53;21.85;;;;;;;-142.57;100.00;55149.47;5076970;28;20060;-81
2024/01/30 05:58:54;;;;;;;37.92;21.02;;;;;;;-142.57;100.00;55155.53;5076680;28;20497;-81
2024/01/30 06:01:20;;;;;;;40.10;22.17;;;;;;;-142.57;100.00;55165.63;5077252;28;20036;-77
2024/01/30 06:03:45;;;;;;;36.25;21.58;;;;;;;-142.57;100.00;55161.59;5075662;28;20036;-81
2024/01/30 06:06:14;;;;;;;36.75;20.83;;;;;;;-142.57;100.00;55145.41;5074891;28;20032;-80
2024/01/30 06:08:40;;;;;;;37.55;21.08;;;;;;;-142.57;100.00;55149.47;5076767;28;20116;-79
2024/01/30 06:11:05;;;;;;;40.78;22.48;;;;;;;-142.57;100.00;55181.78;5074445;28;20044;-81
2024/01/30 06:13:31;;;;;;;39.30;21.83;;;;;;;-142.57;100.00;55171.69;5076524;28;20029;-78
2024/01/30 06:15:57;;;;;;;41.85;23.23;;;;;;;-142.57;100.00;55191.88;5075243;28;20032;-78
2024/01/30 06:18:23;;;;;;;39.63;22.67;;;;;;;-142.57;100.00;55137.34;5076181;28;20040;-79
2024/01/30 06:20:48;;;;;;;43.13;23.13;;;;;;;-142.57;100.00;55175.72;5077929;28;20029;-80
2024/01/30 06:23:14;;;;;;;43.45;22.73;;;;;;;-142.57;100.00;55133.31;5077578;28;20092;-79
2024/01/30 06:25:40;;;;;;;44.83;24.25;;;;;;;-142.57;100.00;55167.66;5080288;28;20232;-81
2024/01/30 06:28:05;;;;;;;42.22;23.20;;;;;;;-142.57;100.00;55204.00;5081658;28;20062;-79
2024/01/30 06:30:31;;;;;;;40.50;21.60;;;;;;;-142.57;100.00;55187.84;5079639;28;20082;-82
2024/01/30 06:32:57;;;;;;;41.22;21.70;;;;;;;-142.57;100.00;55135.31;5077355;28;20020;-80
2024/01/30 06:35:22;;;;;;;37.45;21.55;;;;;;;-142.57;100.00;55193.91;5078997;28;20071;-78
2024/01/30 06:37:48;;;;;;;39.90;22.35;;;;;;;-142.57;100.00;55181.78;5077852;28;20434;-77
2024/01/30 06:40:14;;;;;;;40.55;22.88;;;;;;;-142.57;100.00;55220.16;5078293;28;20039;-79
2024/01/30 06:42:39;;;;;;;37.58;21.83;;;;;;;-142.57;100.00;55179.75;5079020;28;20046;-79
2024/01/30 06:45:05;;;;;;;42.80;22.85;;;;;;;-142.57;100.00;55161.59;5078906;28;20107;-81
2024/01/30 06:47:31;;;;;;;41.92;23.10;;;;;;;-142.57;100.00;55189.88;5079145;28;20032;-82
2024/01/30 06:49:57;;;;;;;45.90;25.27;;;;;;;-142.57;100.00;55167.66;5078649;28;20029;-82
2024/01/30 06:52:23;;;;;;;46.35;25.02;;;;;;;-142.57;100.00;55210.06;5077565;28;20037;-80
2024/01/30 06:54:48;;;;;;;45.83;24.95;;;;;;;-142.57;100.00;55218.16;5074777;28;20508;-82
2024/01/30 06:57:14;;;;;;;48.65;24.80;;;;;;;-142.57;100.00;55240.38;5076083;28;20033;-80
2024/01/30 06:59:43;;;;;;;44.85;24.70;;;;;;;-142.57;100.00;55264.63;5058665;28;20037;-80
2024/01/30 07:02:09;;;;;;;44.83;24.35;;;;;;;-142.57;100.00;55244.41;5056706;28;20029;-83
2024/01/30 07:04:36;;;;;;;41.75;23.02;;;;;;;-142.57;100.00;55296.94;5057228;28;20064;-83
2024/01/30 07:07:05;;;;;;;43.25;22.92;;;;;;;-142.57;100.00;55288.88;5070683;28;20037;-81
2024/01/30 07:09:34;;;;;;;38.75;22.63;;;;;;;-142.57;100.00;55353.50;5078160;28;20029;-83
2024/01/30 07:11:59;;;;;;;41.28;22.73;;;;;;;-142.57;100.00;55337.34;5074568;28;20040;-85
2024/01/30 07:14:28;;;;;;;40.45;23.58;;;;;;;-142.57;100.00;55286.84;5056235;28;20037;-83
2024/01/30 07:16:53;;;;;;;37.55;22.20;;;;;;;-142.57;100.00;55345.44;5056146;28;20044;-80
2024/01/30 07:19:19;;;;;;;42.08;22.67;;;;;;;-142.57;100.00;55349.47;5061586;28;20029;-79
2024/01/30 07:21:44;;;;;;;37.65;22.10;;;;;;;-142.57;100.00;55349.47;5049793;28;20203;-77
2024/01/30 07:24:10;;;;;;;36.55;21.17;;;;;;;-142.57;100.00;55399.97;5048955;28;20078;-78
2024/01/30 07:26:35;;;;;;;36.05;20.25;;;;;;;-142.57;100.00;55503.03;5060945;28;20098;-80
2024/01/30 07:29:01;;;;;;;35.38;21.88;;;;;;;-142.57;100.00;55462.63;5056716;28;20024;-81
2024/01/30 07:31:27;;;;;;;32.42;19.88;;;;;;;-142.57;100.00;55478.78;5055231;28;20075;-78
2024/01/30 07:33:54;;;;;;;30.70;19.13;;;;;;;-142.57;100.00;55482.81;5059574;28;20435;-80
2024/01/30 07:36:19;;;;;;;34.42;19.77;;;;;;;-142.57;100.00;55527.28;5056860;28;20024;-78
2024/01/30 07:38:45;;;;;;;31.83;19.25;;;;;;;-142.57;100.00;55547.47;5046823;28;20478;-81
2024/01/30 07:41:10;;;;;;;35.95;21.08;;;;;;;-142.57;100.00;55484.84;5055454;28;20147;-78
2024/01/30 07:43:36;;;;;;;33.05;19.38;;;;;;;-142.57;100.00;55488.88;5058734;28;20036;-79
2024/01/30 07:46:02;;;;;;;38.75;19.02;;;;;;;-142.57;100.00;55513.13;5053812;28;20025;-79
2024/01/30 07:48:28;;;;;;;31.23;18.80;;;;;;;-142.57;100.00;55482.81;5055007;28;20087;-78
2024/01/30 07:50:53;;;;;;;33.03;19.77;;;;;;;-142.57;100.00;55543.44;5052066;28;20035;-79
2024/01/30 07:53:21;;;;;;;32.38;19.98;;;;;;;-142.57;100.00;55482.81;5064722;28;20036;-78
2024/01/30 08:00:53;;;;;;;33.45;19.38;;;;;;;-142.57;100.00;55563.63;4850739;22;20071;-83
2024/01/30 08:03:19;;;;;;;30.77;18.25;;;;;;;-142.57;100.00;55579.81;5053957;28;20044;-83
2024/01/30 08:05:45;;;;;;;28.42;17.67;;;;;;;-142.57;100.00;55551.50;5053993;28;20041;-82
2024/01/30 08:08:10;;;;;;;27.67;18.02;;;;;;;-142.57;100.00;55563.63;5053856;28;20029;-85
2024/01/30 08:10:36;;;;;;;28.67;18.27;;;;;;;-142.57;100.00;55602.03;5058822;28;20086;-82
2024/01/30 08:13:02;;;;;;;28.58;18.15;;;;;;;-142.57;100.00;55616.16;5057097;28;20210;-86
2024/01/30 08:15:28;;;;;;;30.42;17.23;;;;;;;-142.57;100.00;55640.41;5026831;28;20029;-83
2024/01/30 08:17:57;;;;;;;27.23;17.90;;;;;;;-142.57;100.00;55694.97;5021353;28;20049;-83
2024/01/30 08:20:26;;;;;;;28.20;17.80;;;;;;;-142.57;100.00;55666.69;5051263;28;20037;-82
2024/01/30 08:22:52;;;;;;;30.95;18.30;;;;;;;-142.57;100.00;55656.56;5035040;28;20033;-84
2024/01/30 08:25:18;;;;;;;33.33;18.60;;;;;;;-142.57;100.00;55684.88;5051899;28;20167;-82
2024/01/30 08:27:44;;;;;;;29.23;18.63;;;;;;;-142.57;100.00;55559.59;5052356;28;20044;-80
2024/01/30 08:30:11;;;;;;;27.70;17.67;;;;;;;-142.57;100.00;55565.66;5049938;28;20772;-81
2024/01/30 08:32:37;;;;;;;29.90;18.58;;;;;;;-142.57;100.00;55529.28;5032719;28;20044;-83
2024/01/30 08:35:06;;;;;;;31.35;18.33;;;;;;;-142.57;100.00;55484.84;5049521;28;20029;-82
2024/01/30 08:37:32;;;;;;;28.17;17.83;;;;;;;-142.57;100.00;55474.72;5050600;28;20041;-80
2024/01/30 08:40:02;;;;;;;27.83;18.55;;;;;;;-142.57;100.00;55462.63;5050619;28;20033;-84
2024/01/30 08:42:30;;;;;;;30.95;18.23;;;;;;;-142.57;100.00;55482.81;5050123;28;20166;-81
2024/01/30 08:44:59;;;;;;;30.65;18.38;;;;;;;-142.57;100.00;55509.09;5049604;28;20541;-81
2024/01/30 08:47:25;;;;;;;36.55;19.95;;;;;;;-142.57;100.00;55515.16;5032991;28;20037;-81
2024/01/30 08:49:53;;;;;;;64.18;25.25;;;;;;;-142.57;100.00;55521.22;5033140;28;20504;-81
2024/01/30 08:52:22;;;;;;;86.93;31.50;;;;;;;-142.57;100.00;55529.28;5055286;28;20041;-82
2024/01/30 08:54:47;;;;;;;59.63;23.30;;;;;;;-142.57;100.00;55531.31;5043185;28;20054;-84
2024/01/30 08:57:13;;;;;;;81.10;26.88;;;;;;;-142.57;100.00;55519.19;5057677;28;20112;-86
2024/01/30 08:59:38;;;;;;;61.05;23.17;;;;;;;-142.57;100.00;55539.38;5055321;28;20041;-86
2024/01/30 09:02:04;;;;;;;72.20;24.75;;;;;;;-142.57;100.00;55515.16;5052570;28;20164;-86
2024/01/30 09:04:30;;;;;;;52.55;24.20;;;;;;;-142.57;100.00;55539.38;5052669;28;20029;-83
2024/01/30 09:06:56;;;;;;;61.28;25.83;;;;;;;-142.57;100.00;55567.69;5052303;28;20056;-79
2024/01/30 09:09:21;;;;;;;45.47;21.77;;;;;;;-142.57;100.00;55557.56;5049836;28;20029;-81
2024/01/30 09:11:47;;;;;;;49.20;22.77;;;;;;;-142.57;100.00;55559.59;5050047;28;20144;-82
2024/01/30 09:14:12;;;;;;;49.80;22.63;;;;;;;-142.57;100.00;55579.81;5049346;28;20090;-84
2024/01/30 09:16:38;;;;;;;48.05;22.80;;;;;;;-142.57;100.00;55547.47;5048578;28;20362;-82
2024/01/30 09:19:04;;;;;;;40.92;22.85;;;;;;;-142.57;100.00;55559.59;5049006;28;20036;-80
2024/01/30 09:21:29;;;;;;;51.42;24.00;;;;;;;-142.57;100.00;55567.69;5049144;28;20033;-84
2024/01/30 09:24:04;;;;;;;50.42;23.98;;;;;;;-142.57;100.00;55575.75;5031745;28;20029;-84
2024/01/30 09:26:32;;;;;;;66.35;24.50;;;;;;;-142.57;100.00;55563.63;5050309;28;20482;-85
2024/01/30 09:28:57;;;;;;;54.72;25.08;;;;;;;-142.57;100.00;55600.00;5059515;28;20031;-81
2024/01/30 09:31:23;;;;;;;75.05;24.90;;;;;;;-142.57;100.00;55569.69;5056823;28;20028;-81
2024/01/30 09:33:49;;;;;;;37.08;22.42;;;;;;;-142.57;100.00;55543.44;5050085;28;20029;-82
2024/01/30 09:36:19;;;;;;;38.20;22.70;;;;;;;-142.57;100.00;55583.84;5048575;28;20063;-83
2024/01/30 09:38:45;;;;;;;38.53;23.35;;;;;;;-142.57;100.00;55567.69;5049745;28;20069;-85
2024/01/30 09:41:12;;;;;;;40.13;22.77;;;;;;;-142.57;100.00;55559.59;5050377;28;20567;-81
2024/01/30 09:43:39;;;;;;;37.72;21.63;;;;;;;-142.57;100.00;55543.44;5030868;28;20124;-82
2024/01/30 09:46:05;;;;;;;58.15;24.40;;;;;;;-142.57;100.00;55579.81;5045715;28;20400;-84
2024/01/30 09:48:33;;;;;;;43.28;22.95;;;;;;;-142.57;100.00;55567.69;5029756;28;20048;-82
2024/01/30 09:50:59;;;;;;;46.13;22.50;;;;;;;-142.57;100.00;55579.81;5049183;28;20033;-82
2024/01/30 09:53:25;;;;;;;49.25;24.88;;;;;;;-142.57;100.00;55634.34;5052635;28;20090;-82
2024/01/30 09:55:51;;;;;;;66.53;23.95;;;;;;;-142.57;100.00;55608.09;5057486;28;20385;-86
2024/01/30 09:58:17;;;;;;;71.43;24.23;;;;;;;-142.57;100.00;55630.31;5044155;28;20044;-85
2024/01/30 10:00:42;;;;;;;46.10;23.40;;;;;;;-142.57;100.00;55628.28;5057532;28;20033;-82
2024/01/30 10:03:09;;;;;;;42.00;22.85;;;;;;;-142.57;100.00;55636.38;5056834;28;20029;-84
2024/01/30 10:05:37;;;;;;;42.55;22.92;;;;;;;-142.57;100.00;55640.41;5021127;28;20436;-81
2024/01/30 10:08:09;;;;;;;37.63;22.83;;;;;;;-142.57;100.00;55672.75;5037210;28;20076;-84
2024/01/30 10:10:35;;;;;;;;;;;;;;;-142.57;100.00;55656.56;5037619;28;20033;-83
2024/01/30 10:13:01;;;;;;;42.67;22.58;;;;;;;-142.57;100.00;55640.41;5036858;28;20266;-82
2024/01/30 10:15:28;;;;;;;69.63;28.85;;;;;;;-142.57;100.00;55660.63;5042571;28;20115;-85
2024/01/30 10:17:53;;;;;;;43.63;23.35;;;;;;;-142.57;100.00;55628.28;5056674;28;20029;-84
2024/01/30 10:20:19;;;;;;;92.72;33.70;;;;;;;-142.57;100.00;55656.56;5056576;28;20024;-83
2024/01/30 10:22:45;;;;;;;45.45;24.90;;;;;;;-142.57;100.00;55620.22;5057078;28;20037;-83
2024/01/30 10:25:11;;;;;;;40.40;22.63;;;;;;;-142.57;100.00;55640.41;5057479;28;20032;-83
2024/01/30 10:27:40;;;;;;;42.58;24.38;;;;;;;-142.57;100.00;55612.13;5056533;28;20416;-82
2024/01/30 10:30:06;;;;;;;41.55;23.85;;;;;;;-142.57;100.00;55648.50;5040025;28;20553;-84
2024/01/30 10:32:31;;;;;;;48.05;25.33;;;;;;;-142.57;100.00;55638.41;5039505;28;20095;-82
2024/01/30 10:34:57;;;;;;;61.47;26.77;;;;;;;-142.57;100.00;55676.78;5019284;28;20046;-83
2024/01/30 10:37:25;;;;;;;61.38;27.25;;;;;;;-142.57;100.00;55697.00;5036777;28;20039;-83
2024/01/30 10:39:53;;;;;;;54.90;27.30;;;;;;;-142.57;100.00;55694.97;5017963;28;20037;-83
2024/01/30 10:42:19;;;;;;;48.83;26.30;;;;;;;-142.57;100.00;55692.94;5002485;28;20058;-83
2024/01/30 10:44:50;;;;;;;47.35;24.23;;;;;;;-142.57;100.00;55703.06;5035537;28;20037;-85
2024/01/30 10:47:21;;;;;;;47.20;25.08;;;;;;;-142.57;100.00;55711.13;5017038;28;20047;-85
2024/01/30 10:49:47;;;;;;;42.47;23.92;;;;;;;-142.57;100.00;55697.00;5042191;28;20033;-83
2024/01/30 10:52:16;;;;;;;44.72;25.25;;;;;;;-142.57;100.00;55721.22;5054941;28;20025;-83
2024/01/30 10:54:44;;;;;;;53.83;25.08;;;;;;;-142.57;100.00;55761.66;5054441;28;20045;-83
2024/01/30 10:57:11;;;;;;;65.47;27.00;;;;;;;-142.57;100.00;55767.72;5055057;28;20033;-82